Loudon, Tennessee
Current Conditions -  °F | °C
As of 5:53 AM on Sunday 21 Dec 2014 (Local Time) from KTYS Reporting Station
Overcast Overcast  
Wind Chill: 33°   Ceiling: 4100
Heat Index: 38°   Visibility: 10mi
Dew Point: 30°   Wind: 6mph
Humidity: 73%   Direction: 20°NNE
Pressure: 30.22"   Gusts: NA
Location:  35.73°N, 84.33°W
Report Text: KTYS 211053Z 02005KT 10SM OVC041 03/M01 A3022 RMK AO2 SLP236 T00331011
Loading
Personal Weather Stations






























Interactive Weather Map New forecast layout! Learn more

10-Day Weather Forecast

Advertisements
Track Severe Weather on mobile